Wyalusing, Wisconsin
Current Conditions -  °F | °C
As of 12:35 PM on Monday 26 Jan 2015 (Local Time) from KPDC Reporting Station
Overcast Overcast  
Wind Chill: 27°   Ceiling: 1200
Heat Index: 27°   Visibility: 10mi
Dew Point: 22°   Wind: 3mph
Humidity: 82%   Direction: 130°SE
Pressure: 29.79"   Gusts: NA
Location:  42.927°N, 91.0649°W
Report Text: KPDC 261835Z AUTO 13003KT 10SM OVC012 M03/M06 A2979 RMK AO2 T10301056
Loading
Personal Weather Stations






























Interactive Weather Map New forecast layout! Learn more

10-Day Weather Forecast

Advertisements
Track Severe Weather on mobile